TA92 weather

HDC1 Heliport
Fort Worth, Texas, United States

Public forecast

Using degrees Fahrenheit for public forecast. Weather courtesy of forecast.io.

Closest aviation weather report (METAR) to HDC1 Heliport

Closest report is Fort Worth Alliance Airport, 4.1 nm (7.6 km) N. Retrieved 2020/08/04 10:53 UTC (44 minutes ago):

KAFW 041053Z 06005KT 10SM BKN300 24/17 A3003 RMK AO2 SLP152 T02390167

Closest aviation forecast (TAF) to HDC1 Heliport

Closest forecast is Fort Worth Alliance Airport, 4.1 nm (7.6 km) N. Retrieved 2020/08/04 06:33 UTC (5 hours ago):

TAF KAFW 040530Z 0406/0506 06007KT P6SM FEW250